N510HS KRHV-KSAN
Flight info
| Callsign | N510HS |
|---|---|
| Flight time | 1h 28m |
| Altitude | 17000 |
| Route | SJC VINCO V107 AVE/N0332F370 LAX HUBRD1 |
| Aircraft | C510/L-SDFGRWY/LB1 |
Departure
| Time | 2026-04-12 00:48 |
|---|---|
| Airport | Reid-Hillview Airport of Santa Clara County (KRHV) |
Arrival
| Time | 2026-04-12 02:17 |
|---|---|
| Airport | San Diego International Airport (KSAN) |
| Time | Latitude | Longitude | Altitude | Speed | Heading |
|---|---|---|---|---|---|
| 2026-04-12 00:41 | 37.33578 | -121.82049 | 138 ft | 0 kts | 60° |
| 2026-04-12 00:46 | 37.33578 | -121.82048 | 138 ft | 2 kts | 59° |
| 2026-04-12 00:46 | 37.33621 | -121.82039 | 136 ft | 11 kts | 324° |
| 2026-04-12 00:46 | 37.33669 | -121.82121 | 137 ft | 11 kts | 273° |
| 2026-04-12 00:47 | 37.33675 | -121.82196 | 140 ft | 6 kts | 258° |
| 2026-04-12 00:47 | 37.33651 | -121.82240 | 141 ft | 7 kts | 230° |
| 2026-04-12 00:47 | 37.33614 | -121.82303 | 139 ft | 12 kts | 233° |
| 2026-04-12 00:47 | 37.33586 | -121.82330 | 138 ft | 0 kts | 166° |
| 2026-04-12 00:48 | 37.33562 | -121.82307 | 138 ft | 20 kts | 140° |
| 2026-04-12 00:48 | 37.33270 | -121.82022 | 138 ft | 84 kts | 147° |
| 2026-04-12 00:48 | 37.32713 | -121.81558 | 430 ft | 109 kts | 154° |
| 2026-04-12 00:48 | 37.31905 | -121.81321 | 816 ft | 133 kts | 174° |
| 2026-04-12 00:49 | 37.31003 | -121.80721 | 1109 ft | 168 kts | 134° |
| 2026-04-12 00:49 | 37.30615 | -121.79201 | 1327 ft | 205 kts | 93° |
| 2026-04-12 00:49 | 37.31149 | -121.77515 | 1877 ft | 214 kts | 59° |
| 2026-04-12 00:49 | 37.31728 | -121.75802 | 2278 ft | 214 kts | 93° |
| 2026-04-12 00:50 | 37.31347 | -121.74125 | 2850 ft | 195 kts | 136° |
| 2026-04-12 00:50 | 37.30284 | -121.73189 | 3452 ft | 185 kts | 163° |
| 2026-04-12 00:50 | 37.29160 | -121.72404 | 4111 ft | 187 kts | 154° |
| 2026-04-12 00:50 | 37.28134 | -121.71355 | 4639 ft | 193 kts | 147° |
| 2026-04-12 00:51 | 37.27250 | -121.70069 | 5162 ft | 203 kts | 135° |
| 2026-04-12 00:51 | 37.26519 | -121.68511 | 5643 ft | 210 kts | 128° |
| 2026-04-12 00:51 | 37.25814 | -121.66899 | 6109 ft | 211 kts | 129° |
| 2026-04-12 00:51 | 37.25081 | -121.65292 | 6589 ft | 212 kts | 129° |
| 2026-04-12 00:52 | 37.24345 | -121.63678 | 7091 ft | 215 kts | 129° |
| 2026-04-12 00:52 | 37.23602 | -121.62044 | 7680 ft | 216 kts | 130° |
| 2026-04-12 00:52 | 37.22854 | -121.60407 | 8236 ft | 217 kts | 130° |
| 2026-04-12 00:52 | 37.22096 | -121.58756 | 8753 ft | 219 kts | 130° |
| 2026-04-12 00:53 | 37.21339 | -121.57092 | 9330 ft | 219 kts | 130° |
| 2026-04-12 00:53 | 37.20576 | -121.55421 | 9810 ft | 222 kts | 130° |
| 2026-04-12 00:53 | 37.19801 | -121.53731 | 10192 ft | 224 kts | 130° |
| 2026-04-12 00:53 | 37.19025 | -121.52033 | 10595 ft | 225 kts | 130° |
| 2026-04-12 00:54 | 37.18246 | -121.50327 | 10977 ft | 226 kts | 130° |
| 2026-04-12 00:54 | 37.17455 | -121.48609 | 11366 ft | 229 kts | 130° |
| 2026-04-12 00:54 | 37.16664 | -121.46878 | 11771 ft | 230 kts | 130° |
| 2026-04-12 00:54 | 37.15860 | -121.45135 | 12164 ft | 232 kts | 130° |
| 2026-04-12 00:55 | 37.15052 | -121.43370 | 12557 ft | 234 kts | 130° |
| 2026-04-12 00:55 | 37.14236 | -121.41595 | 12951 ft | 236 kts | 130° |
| 2026-04-12 00:55 | 37.13419 | -121.39815 | 13390 ft | 237 kts | 130° |
| 2026-04-12 00:55 | 37.12588 | -121.38009 | 13707 ft | 241 kts | 130° |
| 2026-04-12 00:56 | 37.11762 | -121.36209 | 13928 ft | 242 kts | 130° |
| 2026-04-12 00:56 | 37.10917 | -121.34376 | 14147 ft | 244 kts | 130° |
| 2026-04-12 00:56 | 37.10065 | -121.32526 | 14437 ft | 246 kts | 131° |
| 2026-04-12 00:56 | 37.09098 | -121.30799 | 14723 ft | 237 kts | 143° |
| 2026-04-12 00:57 | 37.07969 | -121.29284 | 15030 ft | 240 kts | 142° |
| 2026-04-12 00:57 | 37.06879 | -121.27678 | 15334 ft | 243 kts | 141° |
| 2026-04-12 00:57 | 37.05770 | -121.26080 | 15647 ft | 243 kts | 143° |
| 2026-04-12 00:57 | 37.04637 | -121.24494 | 15969 ft | 245 kts | 143° |
| 2026-04-12 00:58 | 37.03502 | -121.22884 | 16304 ft | 247 kts | 143° |
| 2026-04-12 00:58 | 37.02361 | -121.21264 | 16658 ft | 249 kts | 143° |
| 2026-04-12 00:58 | 37.01202 | -121.19627 | 16865 ft | 257 kts | 143° |
| 2026-04-12 00:58 | 36.99985 | -121.17916 | 16865 ft | 268 kts | 142° |
| 2026-04-12 00:59 | 36.98742 | -121.16142 | 16866 ft | 273 kts | 142° |
| 2026-04-12 00:59 | 36.97484 | -121.14354 | 16872 ft | 275 kts | 142° |
| 2026-04-12 00:59 | 36.96638 | -121.13161 | 16874 ft | 277 kts | 142° |
| 2026-04-12 00:59 | 36.95352 | -121.11347 | 16876 ft | 281 kts | 142° |
| 2026-04-12 01:00 | 36.94052 | -121.09510 | 16877 ft | 284 kts | 142° |
| 2026-04-12 01:00 | 36.92743 | -121.07662 | 16877 ft | 286 kts | 142° |
| 2026-04-12 01:00 | 36.91420 | -121.05789 | 16877 ft | 286 kts | 142° |
| 2026-04-12 01:00 | 36.90102 | -121.03927 | 16883 ft | 286 kts | 142° |
| 2026-04-12 01:01 | 36.88775 | -121.02064 | 16887 ft | 288 kts | 142° |
| 2026-04-12 01:01 | 36.87443 | -121.00187 | 16885 ft | 289 kts | 142° |
| 2026-04-12 01:01 | 36.86108 | -120.98304 | 16888 ft | 289 kts | 142° |
| 2026-04-12 01:01 | 36.84776 | -120.96427 | 16891 ft | 289 kts | 142° |
| 2026-04-12 01:02 | 36.83437 | -120.94547 | 16895 ft | 290 kts | 141° |
| 2026-04-12 01:02 | 36.82096 | -120.92661 | 16901 ft | 291 kts | 141° |
| 2026-04-12 01:02 | 36.80753 | -120.90776 | 16896 ft | 290 kts | 141° |
| 2026-04-12 01:02 | 36.79419 | -120.88899 | 16896 ft | 289 kts | 141° |
| 2026-04-12 01:03 | 36.78082 | -120.87028 | 16903 ft | 289 kts | 142° |
| 2026-04-12 01:03 | 36.76742 | -120.85148 | 16902 ft | 290 kts | 142° |
| 2026-04-12 01:03 | 36.75401 | -120.83267 | 16899 ft | 290 kts | 142° |
| 2026-04-12 01:03 | 36.74058 | -120.81388 | 16902 ft | 290 kts | 142° |
| 2026-04-12 01:04 | 36.72738 | -120.79537 | 16911 ft | 290 kts | 141° |
| 2026-04-12 01:04 | 36.71323 | -120.77806 | 16909 ft | 281 kts | 152° |
| 2026-04-12 01:04 | 36.69715 | -120.76474 | 16906 ft | 274 kts | 159° |
| 2026-04-12 01:04 | 36.68078 | -120.75247 | 16907 ft | 275 kts | 158° |
| 2026-04-12 01:05 | 36.66448 | -120.73989 | 16907 ft | 276 kts | 158° |
| 2026-04-12 01:05 | 36.64805 | -120.72740 | 16911 ft | 277 kts | 158° |
| 2026-04-12 01:05 | 36.63142 | -120.71486 | 16914 ft | 283 kts | 158° |
| 2026-04-12 01:05 | 36.61438 | -120.70197 | 16906 ft | 288 kts | 158° |
| 2026-04-12 01:06 | 36.59722 | -120.68889 | 16917 ft | 291 kts | 158° |
| 2026-04-12 01:06 | 36.57990 | -120.67574 | 16921 ft | 293 kts | 158° |
| 2026-04-12 01:06 | 36.56243 | -120.66251 | 16914 ft | 295 kts | 158° |
| 2026-04-12 01:06 | 36.54482 | -120.64918 | 16913 ft | 297 kts | 158° |
| 2026-04-12 01:07 | 36.52719 | -120.63583 | 16909 ft | 297 kts | 158° |
| 2026-04-12 01:07 | 36.50955 | -120.62246 | 16913 ft | 297 kts | 158° |
| 2026-04-12 01:07 | 36.49186 | -120.60910 | 16916 ft | 298 kts | 158° |
| 2026-04-12 01:08 | 36.45633 | -120.58225 | 16924 ft | 299 kts | 158° |
| 2026-04-12 01:08 | 36.43861 | -120.56886 | 16924 ft | 296 kts | 158° |
| 2026-04-12 01:08 | 36.42109 | -120.55561 | 16922 ft | 292 kts | 158° |
| 2026-04-12 01:08 | 36.40403 | -120.54276 | 16921 ft | 288 kts | 158° |
| 2026-04-12 01:09 | 36.38696 | -120.52993 | 16921 ft | 286 kts | 158° |
| 2026-04-12 01:09 | 36.37007 | -120.51719 | 16922 ft | 282 kts | 158° |
| 2026-04-12 01:09 | 36.35332 | -120.50458 | 16926 ft | 281 kts | 159° |
| 2026-04-12 01:09 | 36.33659 | -120.49201 | 16927 ft | 281 kts | 158° |
| 2026-04-12 01:10 | 36.31987 | -120.47943 | 16932 ft | 281 kts | 158° |
| 2026-04-12 01:10 | 36.30319 | -120.46693 | 16932 ft | 281 kts | 158° |
| 2026-04-12 01:10 | 36.28645 | -120.45434 | 16934 ft | 281 kts | 158° |
| 2026-04-12 01:10 | 36.26969 | -120.44174 | 16931 ft | 282 kts | 158° |
| 2026-04-12 01:11 | 36.25288 | -120.42913 | 16928 ft | 282 kts | 158° |
| 2026-04-12 01:11 | 36.23611 | -120.41654 | 16927 ft | 282 kts | 158° |
| 2026-04-12 01:11 | 36.21930 | -120.40395 | 16928 ft | 282 kts | 158° |
| 2026-04-12 01:11 | 36.20254 | -120.39138 | 16930 ft | 282 kts | 158° |
| 2026-04-12 01:12 | 36.18576 | -120.37881 | 16930 ft | 282 kts | 158° |
| 2026-04-12 01:12 | 36.16897 | -120.36626 | 16932 ft | 281 kts | 158° |
| 2026-04-12 01:12 | 36.15224 | -120.35372 | 16935 ft | 281 kts | 158° |
| 2026-04-12 01:12 | 36.13550 | -120.34122 | 16932 ft | 281 kts | 158° |
| 2026-04-12 01:13 | 36.11879 | -120.32871 | 16935 ft | 281 kts | 158° |
| 2026-04-12 01:13 | 36.10207 | -120.31623 | 16938 ft | 280 kts | 158° |
| 2026-04-12 01:13 | 36.08537 | -120.30376 | 16940 ft | 280 kts | 158° |
| 2026-04-12 01:13 | 36.06869 | -120.29132 | 16939 ft | 280 kts | 158° |
| 2026-04-12 01:14 | 36.05224 | -120.27904 | 16941 ft | 280 kts | 158° |
| 2026-04-12 01:14 | 36.03558 | -120.26661 | 16938 ft | 280 kts | 158° |
| 2026-04-12 01:14 | 36.01888 | -120.25417 | 16941 ft | 280 kts | 158° |
| 2026-04-12 01:14 | 36.00220 | -120.24175 | 16942 ft | 280 kts | 158° |
| 2026-04-12 01:15 | 35.98554 | -120.22935 | 16938 ft | 280 kts | 158° |
| 2026-04-12 01:15 | 35.96884 | -120.21692 | 16936 ft | 280 kts | 159° |
| 2026-04-12 01:15 | 35.95223 | -120.20455 | 16940 ft | 279 kts | 159° |
| 2026-04-12 01:15 | 35.93563 | -120.19220 | 16955 ft | 277 kts | 159° |
| 2026-04-12 01:16 | 35.91915 | -120.17997 | 16953 ft | 277 kts | 159° |
| 2026-04-12 01:16 | 35.90256 | -120.16769 | 16954 ft | 278 kts | 158° |
| 2026-04-12 01:16 | 35.88589 | -120.15531 | 16956 ft | 280 kts | 158° |
| 2026-04-12 01:16 | 35.86922 | -120.14291 | 16952 ft | 281 kts | 158° |
| 2026-04-12 01:17 | 35.85246 | -120.13050 | 16951 ft | 281 kts | 158° |
| 2026-04-12 01:17 | 35.83569 | -120.11807 | 16950 ft | 281 kts | 158° |
| 2026-04-12 01:17 | 35.81891 | -120.10562 | 16949 ft | 281 kts | 158° |
| 2026-04-12 01:17 | 35.80214 | -120.09322 | 16948 ft | 281 kts | 158° |
| 2026-04-12 01:18 | 35.78537 | -120.08080 | 16948 ft | 281 kts | 158° |
| 2026-04-12 01:18 | 35.76864 | -120.06844 | 16951 ft | 281 kts | 158° |
| 2026-04-12 01:18 | 35.75184 | -120.05601 | 16948 ft | 281 kts | 158° |
| 2026-04-12 01:18 | 35.73510 | -120.04364 | 16951 ft | 281 kts | 158° |
| 2026-04-12 01:19 | 35.71835 | -120.03127 | 16951 ft | 281 kts | 158° |
| 2026-04-12 01:19 | 35.70156 | -120.01888 | 16946 ft | 282 kts | 158° |
| 2026-04-12 01:19 | 35.68478 | -120.00648 | 16954 ft | 282 kts | 158° |
| 2026-04-12 01:19 | 35.66813 | -119.99422 | 16947 ft | 282 kts | 158° |
| 2026-04-12 01:20 | 35.65130 | -119.98179 | 16948 ft | 282 kts | 158° |
| 2026-04-12 01:20 | 35.63518 | -119.96775 | 16950 ft | 286 kts | 150° |
| 2026-04-12 01:20 | 35.61945 | -119.95281 | 16950 ft | 285 kts | 152° |
| 2026-04-12 01:20 | 35.60350 | -119.93835 | 16948 ft | 285 kts | 152° |
| 2026-04-12 01:21 | 35.58763 | -119.92375 | 16945 ft | 286 kts | 152° |
| 2026-04-12 01:21 | 35.57175 | -119.90899 | 16944 ft | 286 kts | 152° |
| 2026-04-12 01:21 | 35.55587 | -119.89430 | 16947 ft | 286 kts | 152° |
| 2026-04-12 01:21 | 35.53999 | -119.87962 | 16946 ft | 286 kts | 152° |
| 2026-04-12 01:22 | 35.52404 | -119.86491 | 16944 ft | 286 kts | 152° |
| 2026-04-12 01:22 | 35.50813 | -119.85022 | 16947 ft | 287 kts | 152° |
| 2026-04-12 01:22 | 35.49218 | -119.83551 | 16948 ft | 287 kts | 152° |
| 2026-04-12 01:22 | 35.47626 | -119.82082 | 16945 ft | 287 kts | 152° |
| 2026-04-12 01:23 | 35.46031 | -119.80613 | 16946 ft | 287 kts | 152° |
| 2026-04-12 01:23 | 35.44431 | -119.79139 | 16947 ft | 287 kts | 152° |
| 2026-04-12 01:23 | 35.42835 | -119.77668 | 16946 ft | 287 kts | 152° |
| 2026-04-12 01:23 | 35.41236 | -119.76200 | 16943 ft | 287 kts | 152° |
| 2026-04-12 01:24 | 35.39635 | -119.74725 | 16945 ft | 288 kts | 152° |
| 2026-04-12 01:24 | 35.38037 | -119.73256 | 16945 ft | 288 kts | 151° |
| 2026-04-12 01:24 | 35.36433 | -119.71782 | 16940 ft | 288 kts | 152° |
| 2026-04-12 01:24 | 35.34828 | -119.70310 | 16944 ft | 288 kts | 151° |
| 2026-04-12 01:25 | 35.33224 | -119.68837 | 16945 ft | 288 kts | 151° |
| 2026-04-12 01:25 | 35.31619 | -119.67364 | 16939 ft | 288 kts | 151° |
| 2026-04-12 01:25 | 35.30019 | -119.65896 | 16945 ft | 287 kts | 152° |
| 2026-04-12 01:25 | 35.28419 | -119.64431 | 16944 ft | 287 kts | 152° |
| 2026-04-12 01:26 | 35.26820 | -119.62966 | 16944 ft | 287 kts | 152° |
| 2026-04-12 01:26 | 35.25220 | -119.61502 | 16940 ft | 287 kts | 152° |
| 2026-04-12 01:26 | 35.23623 | -119.60040 | 16936 ft | 287 kts | 152° |
| 2026-04-12 01:26 | 35.22026 | -119.58580 | 16933 ft | 287 kts | 152° |
| 2026-04-12 01:27 | 35.20445 | -119.57134 | 16936 ft | 286 kts | 152° |
| 2026-04-12 01:27 | 35.18828 | -119.55658 | 16934 ft | 286 kts | 152° |
| 2026-04-12 01:27 | 35.17233 | -119.54201 | 16933 ft | 286 kts | 152° |
| 2026-04-12 01:27 | 35.15641 | -119.52746 | 16939 ft | 286 kts | 152° |
| 2026-04-12 01:28 | 35.14069 | -119.51314 | 16935 ft | 285 kts | 152° |
| 2026-04-12 01:28 | 35.12475 | -119.49861 | 16934 ft | 286 kts | 152° |
| 2026-04-12 01:28 | 35.10885 | -119.48410 | 16931 ft | 286 kts | 152° |
| 2026-04-12 01:28 | 35.09291 | -119.46959 | 16937 ft | 285 kts | 152° |
| 2026-04-12 01:29 | 35.07703 | -119.45511 | 16937 ft | 285 kts | 152° |
| 2026-04-12 01:29 | 35.06117 | -119.44070 | 16942 ft | 284 kts | 152° |
| 2026-04-12 01:29 | 35.04531 | -119.42628 | 16939 ft | 284 kts | 152° |
| 2026-04-12 01:29 | 35.02941 | -119.41182 | 16942 ft | 285 kts | 152° |
| 2026-04-12 01:30 | 35.01348 | -119.39735 | 16941 ft | 285 kts | 152° |
| 2026-04-12 01:30 | 34.99756 | -119.38289 | 16945 ft | 285 kts | 152° |
| 2026-04-12 01:30 | 34.98162 | -119.36843 | 16943 ft | 286 kts | 152° |
| 2026-04-12 01:30 | 34.96574 | -119.35397 | 16951 ft | 285 kts | 152° |
| 2026-04-12 01:31 | 34.94980 | -119.33955 | 16949 ft | 285 kts | 152° |
| 2026-04-12 01:31 | 34.93387 | -119.32512 | 16949 ft | 286 kts | 152° |
| 2026-04-12 01:31 | 34.91789 | -119.31064 | 16950 ft | 286 kts | 152° |
| 2026-04-12 01:31 | 34.90185 | -119.29611 | 16951 ft | 288 kts | 152° |
| 2026-04-12 01:32 | 34.88571 | -119.28151 | 16949 ft | 289 kts | 152° |
| 2026-04-12 01:32 | 34.86963 | -119.26694 | 16955 ft | 288 kts | 152° |
| 2026-04-12 01:32 | 34.85355 | -119.25241 | 16956 ft | 288 kts | 152° |
| 2026-04-12 01:32 | 34.83741 | -119.23784 | 16959 ft | 289 kts | 152° |
| 2026-04-12 01:33 | 34.82126 | -119.22325 | 16956 ft | 289 kts | 152° |
| 2026-04-12 01:33 | 34.80507 | -119.20863 | 16958 ft | 290 kts | 152° |
| 2026-04-12 01:33 | 34.78884 | -119.19399 | 16956 ft | 291 kts | 152° |
| 2026-04-12 01:33 | 34.77262 | -119.17934 | 16966 ft | 291 kts | 152° |
| 2026-04-12 01:34 | 34.75632 | -119.16465 | 16967 ft | 291 kts | 152° |
| 2026-04-12 01:34 | 34.74009 | -119.15003 | 16973 ft | 291 kts | 152° |
| 2026-04-12 01:34 | 34.72383 | -119.13540 | 16970 ft | 291 kts | 152° |
| 2026-04-12 01:34 | 34.70761 | -119.12078 | 16972 ft | 290 kts | 152° |
| 2026-04-12 01:35 | 34.69142 | -119.10622 | 16970 ft | 289 kts | 152° |
| 2026-04-12 01:35 | 34.67526 | -119.09168 | 16977 ft | 289 kts | 152° |
| 2026-04-12 01:35 | 34.65911 | -119.07718 | 16981 ft | 290 kts | 152° |
| 2026-04-12 01:35 | 34.64291 | -119.06265 | 16982 ft | 289 kts | 152° |
| 2026-04-12 01:36 | 34.62693 | -119.04827 | 16983 ft | 289 kts | 152° |
| 2026-04-12 01:36 | 34.61078 | -119.03378 | 16986 ft | 289 kts | 152° |
| 2026-04-12 01:36 | 34.59457 | -119.01926 | 16984 ft | 290 kts | 152° |
| 2026-04-12 01:36 | 34.57833 | -119.00469 | 16998 ft | 291 kts | 152° |
| 2026-04-12 01:37 | 34.56208 | -118.99012 | 16986 ft | 290 kts | 152° |
| 2026-04-12 01:37 | 34.54591 | -118.97564 | 17004 ft | 288 kts | 152° |
| 2026-04-12 01:37 | 34.52985 | -118.96125 | 17003 ft | 287 kts | 152° |
| 2026-04-12 01:37 | 34.51379 | -118.94690 | 17013 ft | 286 kts | 152° |
| 2026-04-12 01:38 | 34.49771 | -118.93251 | 17014 ft | 288 kts | 152° |
| 2026-04-12 01:38 | 34.48157 | -118.91810 | 17004 ft | 288 kts | 152° |
| 2026-04-12 01:38 | 34.46542 | -118.90366 | 17008 ft | 289 kts | 152° |
| 2026-04-12 01:38 | 34.44917 | -118.88916 | 17007 ft | 290 kts | 152° |
| 2026-04-12 01:39 | 34.43301 | -118.87471 | 17009 ft | 289 kts | 152° |
| 2026-04-12 01:39 | 34.41685 | -118.86029 | 17009 ft | 289 kts | 152° |
| 2026-04-12 01:39 | 34.40064 | -118.84587 | 17010 ft | 289 kts | 152° |
| 2026-04-12 01:39 | 34.38445 | -118.83143 | 17012 ft | 289 kts | 152° |
| 2026-04-12 01:40 | 34.36827 | -118.81702 | 17013 ft | 289 kts | 152° |
| 2026-04-12 01:40 | 34.35202 | -118.80254 | 17015 ft | 290 kts | 152° |
| 2026-04-12 01:40 | 34.33583 | -118.78812 | 17006 ft | 289 kts | 152° |
| 2026-04-12 01:40 | 34.31960 | -118.77370 | 17007 ft | 289 kts | 152° |
| 2026-04-12 01:41 | 34.30339 | -118.75929 | 17002 ft | 289 kts | 152° |
| 2026-04-12 01:41 | 34.28717 | -118.74486 | 16998 ft | 289 kts | 152° |
| 2026-04-12 01:41 | 34.27094 | -118.73047 | 17000 ft | 289 kts | 152° |
| 2026-04-12 01:41 | 34.25473 | -118.71606 | 16994 ft | 289 kts | 152° |
| 2026-04-12 01:42 | 34.23856 | -118.70171 | 16987 ft | 288 kts | 152° |
| 2026-04-12 01:42 | 34.22241 | -118.68739 | 16994 ft | 288 kts | 152° |
| 2026-04-12 01:42 | 34.20625 | -118.67308 | 16993 ft | 289 kts | 152° |
| 2026-04-12 01:42 | 34.19028 | -118.65893 | 16991 ft | 288 kts | 152° |
| 2026-04-12 01:43 | 34.17412 | -118.64460 | 16990 ft | 288 kts | 152° |
| 2026-04-12 01:43 | 34.15795 | -118.63029 | 16985 ft | 288 kts | 152° |
| 2026-04-12 01:43 | 34.14178 | -118.61598 | 16996 ft | 288 kts | 152° |
| 2026-04-12 01:43 | 34.12560 | -118.60169 | 16996 ft | 288 kts | 152° |
| 2026-04-12 01:44 | 34.10948 | -118.58743 | 17003 ft | 287 kts | 152° |
| 2026-04-12 01:44 | 34.09334 | -118.57315 | 17027 ft | 288 kts | 152° |
| 2026-04-12 01:44 | 34.07713 | -118.55889 | 17030 ft | 289 kts | 152° |
| 2026-04-12 01:44 | 34.06092 | -118.54457 | 17026 ft | 290 kts | 152° |
| 2026-04-12 01:45 | 34.04464 | -118.53018 | 17024 ft | 290 kts | 152° |
| 2026-04-12 01:45 | 34.02834 | -118.51581 | 17023 ft | 290 kts | 152° |
| 2026-04-12 01:45 | 34.01207 | -118.50151 | 17022 ft | 290 kts | 152° |
| 2026-04-12 01:45 | 33.99575 | -118.48710 | 17019 ft | 290 kts | 152° |
| 2026-04-12 01:46 | 33.97949 | -118.47278 | 17020 ft | 290 kts | 152° |
| 2026-04-12 01:46 | 33.96316 | -118.45842 | 17017 ft | 290 kts | 152° |
| 2026-04-12 01:46 | 33.94748 | -118.44463 | 17018 ft | 290 kts | 152° |
| 2026-04-12 01:46 | 33.93668 | -118.43504 | 17016 ft | 291 kts | 150° |
| 2026-04-12 01:47 | 33.92204 | -118.41773 | 17019 ft | 297 kts | 139° |
| 2026-04-12 01:47 | 33.90816 | -118.39937 | 17017 ft | 296 kts | 141° |
| 2026-04-12 01:47 | 33.89387 | -118.38160 | 17021 ft | 296 kts | 141° |
| 2026-04-12 01:47 | 33.87974 | -118.36357 | 17017 ft | 297 kts | 140° |
| 2026-04-12 01:48 | 33.86571 | -118.34536 | 17017 ft | 297 kts | 140° |
| 2026-04-12 01:48 | 33.85157 | -118.32721 | 17016 ft | 297 kts | 141° |
| 2026-04-12 01:48 | 33.83744 | -118.30911 | 17018 ft | 297 kts | 140° |
| 2026-04-12 01:48 | 33.82328 | -118.29099 | 17018 ft | 297 kts | 141° |
| 2026-04-12 01:49 | 33.80918 | -118.27290 | 17019 ft | 297 kts | 140° |
| 2026-04-12 01:49 | 33.79504 | -118.25478 | 17016 ft | 296 kts | 141° |
| 2026-04-12 01:49 | 33.78092 | -118.23675 | 16999 ft | 296 kts | 140° |
| 2026-04-12 01:49 | 33.76683 | -118.21869 | 17002 ft | 296 kts | 140° |
| 2026-04-12 01:50 | 33.75272 | -118.20068 | 16999 ft | 296 kts | 140° |
| 2026-04-12 01:50 | 33.73860 | -118.18263 | 17000 ft | 296 kts | 140° |
| 2026-04-12 01:50 | 33.72445 | -118.16458 | 17001 ft | 296 kts | 140° |
| 2026-04-12 01:50 | 33.71035 | -118.14656 | 17000 ft | 297 kts | 140° |
| 2026-04-12 01:51 | 33.68205 | -118.11047 | 16976 ft | 297 kts | 140° |
| 2026-04-12 01:51 | 33.66790 | -118.09245 | 16975 ft | 297 kts | 140° |
| 2026-04-12 01:51 | 33.65377 | -118.07443 | 16980 ft | 297 kts | 140° |
| 2026-04-12 01:52 | 33.63960 | -118.05640 | 16980 ft | 297 kts | 140° |
| 2026-04-12 01:52 | 33.62542 | -118.03836 | 17014 ft | 297 kts | 140° |
| 2026-04-12 01:52 | 33.61127 | -118.02037 | 17017 ft | 297 kts | 140° |
| 2026-04-12 01:52 | 33.59707 | -118.00231 | 17019 ft | 297 kts | 140° |
| 2026-04-12 01:53 | 33.58290 | -117.98430 | 17017 ft | 297 kts | 140° |
| 2026-04-12 01:53 | 33.56871 | -117.96630 | 17019 ft | 297 kts | 140° |
| 2026-04-12 01:53 | 33.55468 | -117.94847 | 17017 ft | 297 kts | 140° |
| 2026-04-12 01:53 | 33.54028 | -117.93022 | 17018 ft | 297 kts | 140° |
| 2026-04-12 01:54 | 33.52627 | -117.91244 | 17017 ft | 297 kts | 140° |
| 2026-04-12 01:54 | 33.51202 | -117.89441 | 17014 ft | 298 kts | 140° |
| 2026-04-12 01:54 | 33.49782 | -117.87640 | 17016 ft | 298 kts | 140° |
| 2026-04-12 01:54 | 33.48355 | -117.85836 | 17018 ft | 298 kts | 140° |
| 2026-04-12 01:55 | 33.46931 | -117.84032 | 17014 ft | 298 kts | 140° |
| 2026-04-12 01:55 | 33.45505 | -117.82230 | 17020 ft | 298 kts | 140° |
| 2026-04-12 01:55 | 33.44079 | -117.80426 | 17020 ft | 298 kts | 140° |
| 2026-04-12 01:55 | 33.42652 | -117.78624 | 17018 ft | 298 kts | 140° |
| 2026-04-12 01:56 | 33.41223 | -117.76821 | 17018 ft | 298 kts | 140° |
| 2026-04-12 01:56 | 33.39796 | -117.75019 | 17020 ft | 298 kts | 140° |
| 2026-04-12 01:56 | 33.38365 | -117.73216 | 17019 ft | 298 kts | 140° |
| 2026-04-12 01:56 | 33.36937 | -117.71414 | 17019 ft | 299 kts | 140° |
| 2026-04-12 01:57 | 33.35506 | -117.69612 | 17019 ft | 299 kts | 140° |
| 2026-04-12 01:57 | 33.34075 | -117.67808 | 17016 ft | 299 kts | 140° |
| 2026-04-12 01:57 | 33.32631 | -117.65995 | 16811 ft | 305 kts | 140° |
| 2026-04-12 01:57 | 33.31142 | -117.64127 | 16428 ft | 314 kts | 139° |
| 2026-04-12 01:58 | 33.29623 | -117.62214 | 16008 ft | 319 kts | 139° |
| 2026-04-12 01:58 | 33.28091 | -117.60284 | 15586 ft | 321 kts | 139° |
| 2026-04-12 01:58 | 33.26549 | -117.58344 | 15159 ft | 321 kts | 139° |
| 2026-04-12 01:58 | 33.25015 | -117.56422 | 14746 ft | 319 kts | 139° |
| 2026-04-12 01:59 | 33.23493 | -117.54510 | 14342 ft | 316 kts | 139° |
| 2026-04-12 01:59 | 33.21984 | -117.52618 | 13952 ft | 313 kts | 139° |
| 2026-04-12 01:59 | 33.20493 | -117.50748 | 13527 ft | 310 kts | 139° |
| 2026-04-12 01:59 | 33.19009 | -117.48890 | 13088 ft | 307 kts | 139° |
| 2026-04-12 02:00 | 33.17538 | -117.47049 | 12665 ft | 306 kts | 139° |
| 2026-04-12 02:00 | 33.16071 | -117.45213 | 12249 ft | 305 kts | 139° |
| 2026-04-12 02:00 | 33.14629 | -117.43418 | 11845 ft | 302 kts | 140° |
| 2026-04-12 02:00 | 33.12977 | -117.41883 | 11431 ft | 294 kts | 154° |
| 2026-04-12 02:01 | 33.11186 | -117.40815 | 11039 ft | 290 kts | 161° |
| 2026-04-12 02:01 | 33.09352 | -117.39807 | 10650 ft | 290 kts | 160° |
| 2026-04-12 02:01 | 33.07502 | -117.38764 | 10272 ft | 290 kts | 160° |
| 2026-04-12 02:01 | 33.05676 | -117.37751 | 9893 ft | 290 kts | 160° |
| 2026-04-12 02:02 | 33.03847 | -117.36737 | 9483 ft | 290 kts | 160° |
| 2026-04-12 02:02 | 33.02027 | -117.35727 | 9083 ft | 285 kts | 159° |
| 2026-04-12 02:02 | 33.00277 | -117.34747 | 9036 ft | 269 kts | 159° |
| 2026-04-12 02:02 | 32.98612 | -117.33825 | 9038 ft | 264 kts | 160° |
| 2026-04-12 02:03 | 32.96961 | -117.32916 | 9026 ft | 266 kts | 160° |
| 2026-04-12 02:03 | 32.95921 | -117.32338 | 9036 ft | 266 kts | 160° |
| 2026-04-12 02:03 | 32.94234 | -117.31403 | 9026 ft | 267 kts | 160° |
| 2026-04-12 02:03 | 32.92544 | -117.30465 | 9026 ft | 268 kts | 159° |
| 2026-04-12 02:04 | 32.90848 | -117.29526 | 9026 ft | 269 kts | 160° |
| 2026-04-12 02:04 | 32.89147 | -117.28590 | 9026 ft | 269 kts | 160° |
| 2026-04-12 02:04 | 32.87456 | -117.27643 | 9026 ft | 269 kts | 159° |
| 2026-04-12 02:04 | 32.85931 | -117.26311 | 8574 ft | 278 kts | 135° |
| 2026-04-12 02:05 | 32.84990 | -117.24300 | 7984 ft | 280 kts | 114° |
| 2026-04-12 02:05 | 32.84336 | -117.22126 | 7413 ft | 278 kts | 111° |
| 2026-04-12 02:05 | 32.83714 | -117.19966 | 6876 ft | 276 kts | 111° |
| 2026-04-12 02:05 | 32.83101 | -117.17818 | 6318 ft | 273 kts | 111° |
| 2026-04-12 02:06 | 32.82498 | -117.15722 | 5747 ft | 270 kts | 111° |
| 2026-04-12 02:06 | 32.81890 | -117.13632 | 5179 ft | 263 kts | 111° |
| 2026-04-12 02:06 | 32.81306 | -117.11616 | 4994 ft | 242 kts | 111° |
| 2026-04-12 02:06 | 32.80794 | -117.09798 | 4995 ft | 224 kts | 111° |
| 2026-04-12 02:07 | 32.80322 | -117.08104 | 4991 ft | 214 kts | 111° |
| 2026-04-12 02:07 | 32.79865 | -117.06461 | 4987 ft | 206 kts | 111° |
| 2026-04-12 02:07 | 32.79424 | -117.04868 | 4980 ft | 200 kts | 111° |
| 2026-04-12 02:07 | 32.78997 | -117.03309 | 4982 ft | 198 kts | 111° |
| 2026-04-12 02:08 | 32.78598 | -117.01752 | 4980 ft | 197 kts | 105° |
| 2026-04-12 02:08 | 32.78388 | -117.00137 | 4985 ft | 199 kts | 101° |
| 2026-04-12 02:08 | 32.78183 | -116.98493 | 4982 ft | 202 kts | 101° |
| 2026-04-12 02:08 | 32.77972 | -116.96837 | 4982 ft | 204 kts | 101° |
| 2026-04-12 02:09 | 32.77757 | -116.95160 | 4982 ft | 205 kts | 101° |
| 2026-04-12 02:09 | 32.77544 | -116.93484 | 4987 ft | 205 kts | 101° |
| 2026-04-12 02:09 | 32.77210 | -116.91847 | 4936 ft | 205 kts | 118° |
| 2026-04-12 02:09 | 32.76214 | -116.90660 | 4646 ft | 208 kts | 155° |
| 2026-04-12 02:10 | 32.74806 | -116.90382 | 4349 ft | 208 kts | 186° |
| 2026-04-12 02:10 | 32.73363 | -116.90629 | 4080 ft | 211 kts | 191° |
| 2026-04-12 02:10 | 32.72005 | -116.91165 | 3989 ft | 203 kts | 215° |
| 2026-04-12 02:10 | 32.71190 | -116.92462 | 3979 ft | 196 kts | 247° |
| 2026-04-12 02:11 | 32.70760 | -116.93972 | 3989 ft | 191 kts | 250° |
| 2026-04-12 02:11 | 32.70324 | -116.95460 | 3982 ft | 190 kts | 250° |
| 2026-04-12 02:11 | 32.69901 | -116.96930 | 3983 ft | 185 kts | 250° |
| 2026-04-12 02:11 | 32.69493 | -116.98371 | 3974 ft | 183 kts | 251° |
| 2026-04-12 02:12 | 32.69151 | -116.99818 | 3976 ft | 181 kts | 259° |
| 2026-04-12 02:12 | 32.69107 | -117.01312 | 3925 ft | 183 kts | 274° |
| 2026-04-12 02:12 | 32.69394 | -117.02802 | 3693 ft | 183 kts | 285° |
| 2026-04-12 02:12 | 32.69762 | -117.04205 | 3436 ft | 175 kts | 285° |
| 2026-04-12 02:13 | 32.70098 | -117.05574 | 3158 ft | 169 kts | 285° |
| 2026-04-12 02:13 | 32.70426 | -117.06899 | 2864 ft | 164 kts | 285° |
| 2026-04-12 02:13 | 32.70734 | -117.08162 | 2365 ft | 150 kts | 285° |
| 2026-04-12 02:13 | 32.71008 | -117.09290 | 1871 ft | 139 kts | 285° |
| 2026-04-12 02:14 | 32.71261 | -117.10338 | 1608 ft | 124 kts | 285° |
| 2026-04-12 02:14 | 32.71492 | -117.11271 | 1427 ft | 109 kts | 285° |
| 2026-04-12 02:14 | 32.71686 | -117.12077 | 1259 ft | 97 kts | 285° |
| 2026-04-12 02:14 | 32.71866 | -117.12830 | 1105 ft | 94 kts | 285° |
| 2026-04-12 02:15 | 32.72051 | -117.13571 | 958 ft | 98 kts | 287° |
| 2026-04-12 02:15 | 32.72237 | -117.14358 | 798 ft | 100 kts | 285° |
| 2026-04-12 02:15 | 32.72442 | -117.15138 | 640 ft | 99 kts | 286° |
| 2026-04-12 02:15 | 32.72613 | -117.15932 | 458 ft | 99 kts | 286° |
| 2026-04-12 02:16 | 32.72804 | -117.16705 | 330 ft | 97 kts | 290° |
| 2026-04-12 02:16 | 32.73003 | -117.17479 | 164 ft | 99 kts | 287° |
| 2026-04-12 02:16 | 32.73186 | -117.18268 | 30 ft | 98 kts | 288° |
| 2026-04-12 02:16 | 32.73356 | -117.18955 | 21 ft | 76 kts | 285° |
| 2026-04-12 02:17 | 32.73442 | -117.19301 | 20 ft | 28 kts | 289° |
| 2026-04-12 02:17 | 32.73439 | -117.19441 | 22 ft | 11 kts | 257° |
| 2026-04-12 02:17 | 32.73401 | -117.19498 | 23 ft | 8 kts | 174° |
| 2026-04-12 02:17 | 32.73362 | -117.19423 | 22 ft | 14 kts | 105° |
| 2026-04-12 02:18 | 32.73330 | -117.19283 | 19 ft | 19 kts | 104° |
| 2026-04-12 02:18 | 32.73325 | -117.19167 | 19 ft | 12 kts | 47° |
| 2026-04-12 02:18 | 32.73400 | -117.19119 | 19 ft | 14 kts | 30° |
| 2026-04-12 02:18 | 32.73477 | -117.19040 | 18 ft | 13 kts | 62° |
| 2026-04-12 02:19 | 32.73471 | -117.18974 | 18 ft | 9 kts | 106° |
| 2026-04-12 02:19 | 32.73451 | -117.18881 | 18 ft | 13 kts | 106° |
| 2026-04-12 02:19 | 32.73425 | -117.18775 | 17 ft | 15 kts | 107° |
| 2026-04-12 02:19 | 32.73393 | -117.18645 | 18 ft | 17 kts | 108° |
| 2026-04-12 02:20 | 32.73360 | -117.18511 | 21 ft | 17 kts | 107° |
| 2026-04-12 02:20 | 32.73326 | -117.18361 | 20 ft | 20 kts | 105° |
| 2026-04-12 02:20 | 32.73283 | -117.18204 | 19 ft | 20 kts | 109° |
| 2026-04-12 02:20 | 32.73248 | -117.18041 | 19 ft | 20 kts | 101° |
| 2026-04-12 02:21 | 32.73286 | -117.17971 | 20 ft | 12 kts | 20° |
| 2026-04-12 02:21 | 32.73361 | -117.17946 | 25 ft | 8 kts | 30° |
| 2026-04-12 02:21 | 32.73369 | -117.17926 | 23 ft | 0 kts | 93° |